Marian'Ske Lazne-Letiste, Czech Republic

11:02 AM CEST on October 25, 2014 (GMT +0200)
INAMNICH2 | Change Station
CLOSE
Current Station
Personal Weather Station
Location: Mnichov, N/A
Elevation: 2385 ft
Nearby Weather Stations

Elev 2385 ft 50.04 °N, 12.79 °E | Updated 2 minutes ago

Overcast
Overcast
43.7 °F
Feels Like 44 °F
N
0.7
Wind Variable Wind from West
Gusts 3.1 mph

Today
High -- | Low -- °F
--% Chance of Precip.
Yesterday
High -- | Low -- °F
Precip. -- in
7:46 AM 5:58 PM
New Moon, 2% visible
Pressure 30.21 in
Visibility -9999.0 miles
Clouds Overcast 1400 ft
Windchill 44 °F
Dew Point 39 °F
Humidity 82%
Rainfall 0.00 in
Snow Depth Not available.
UV 1 out of 12
Pollen Not available.
Air Quality Not available.
Flu Activity Not available.
SPECI LKLN 250904Z AUTO 15002KT //// OVC014 07/07 Q1023

More Conditions Fewer Conditions

Pressure 30.21 in
Visibility -9999.0 miles
Clouds Overcast 1400 ft
Windchill 44 °F
Dew Point 39 °F
Humidity 82%
Rainfall 0.00 in
Snow Depth Not available.
UV 1 out of 12
Pollen Not available.
Air Quality Not available.
Flu Activity Not available.
SPECI LKLN 250904Z AUTO 15002KT //// OVC014 07/07 Q1023

More Conditions Fewer Conditions

10-Day Weather Forecast

Almanac

Astronomy

Oct. 25, 2014 Rise Set
Actual Time 7:46 AM CEST 5:58 PM CEST
Civil Twilight 7:13 AM CEST 6:32 PM CEST
Nautical Twilight 6:35 AM CEST 7:09 PM CEST
Astronomical Twilight 5:58 AM CEST 7:47 PM CEST
Moon 9:14 AM CEST 7:01 PM CEST
Length of Visible Light 11h 18m
Length of Day
10h 12m
Tomorrow will be 3m 29s shorter.
New Moon, 2% of the Moon is Illuminated
Today
New Moon
Oct 30
First Quarter
Nov 6
Full
Nov 14
Last Quarter
Nov 22
New

Yesterday's Extremes

Country Highs Country Lows

Community

WunderPhotos

Upload Photos

1,764,796 photos uploaded!

Nearby

Snow Depth

Not available.

Earthquake Activity

City Distance Mag. Time & Date
No recent earthquake activity has been reported nearby.
Minimum magnitude displayed is 2.5.

Coastal Water Temperatures

Place Temperature
No Stations Reporting

Nearby Weather Stations